sensor_id;sensor_type;location;lat;lon;timestamp;pressure;altitude;pressure_sealevel;temperature;humidity
15998;BME280;8103;51.340;12.326;2023-05-01T00:01:10;100724.59;;;9.18;63.03
15998;BME280;8103;51.340;12.326;2023-05-01T00:03:37;100727.19;;;9.13;63.05
15998;BME280;8103;51.340;12.326;2023-05-01T00:06:08;100723.78;;;9.06;63.19
15998;BME280;8103;51.340;12.326;2023-05-01T00:08:38;100719.91;;;9.02;63.99
15998;BME280;8103;51.340;12.326;2023-05-01T00:11:05;100717.94;;;8.98;64.48
15998;BME280;8103;51.340;12.326;2023-05-01T00:13:40;100713.03;;;8.95;64.79
15998;BME280;8103;51.340;12.326;2023-05-01T00:16:11;100709.44;;;8.89;65.00
15998;BME280;8103;51.340;12.326;2023-05-01T00:18:39;100709.78;;;8.81;65.17
15998;BME280;8103;51.340;12.326;2023-05-01T00:21:06;100705.31;;;8.75;65.42
15998;BME280;8103;51.340;12.326;2023-05-01T00:23:33;100708.91;;;8.69;65.31
15998;BME280;8103;51.340;12.326;2023-05-01T00:26:04;100696.44;;;8.63;65.37
15998;BME280;8103;51.340;12.326;2023-05-01T00:28:35;100699.56;;;8.60;65.63
15998;BME280;8103;51.340;12.326;2023-05-01T00:31:05;100693.06;;;8.56;66.02
15998;BME280;8103;51.340;12.326;2023-05-01T00:33:32;100687.09;;;8.54;65.57
15998;BME280;8103;51.340;12.326;2023-05-01T00:35:58;100682.22;;;8.51;64.76
15998;BME280;8103;51.340;12.326;2023-05-01T00:38:25;100684.88;;;8.51;65.42
15998;BME280;8103;51.340;12.326;2023-05-01T00:40:52;100684.88;;;8.51;65.20
15998;BME280;8103;51.340;12.326;2023-05-01T00:43:22;100684.44;;;8.54;65.16
15998;BME280;8103;51.340;12.326;2023-05-01T00:45:49;100675.81;;;8.52;65.30
15998;BME280;8103;51.340;12.326;2023-05-01T00:48:16;100670.47;;;8.52;65.12
15998;BME280;8103;51.340;12.326;2023-05-01T00:50:44;100660.63;;;8.52;64.87
15998;BME280;8103;51.340;12.326;2023-05-01T00:53:11;100665.13;;;8.52;64.84
15998;BME280;8103;51.340;12.326;2023-05-01T00:55:41;100669.91;;;8.50;64.92
15998;BME280;8103;51.340;12.326;2023-05-01T00:58:09;100656.41;;;8.45;65.11
15998;BME280;8103;51.340;12.326;2023-05-01T01:00:37;100649.88;;;8.41;64.91
15998;BME280;8103;51.340;12.326;2023-05-01T01:03:05;100659.63;;;8.35;65.26
15998;BME280;8103;51.340;12.326;2023-05-01T01:05:39;100656.34;;;8.33;64.81
15998;BME280;8103;51.340;12.326;2023-05-01T01:11:35;100644.84;;;8.33;64.38
15998;BME280;8103;51.340;12.326;2023-05-01T01:14:18;100642.41;;;8.31;64.27
15998;BME280;8103;51.340;12.326;2023-05-01T01:17:05;100636.03;;;8.32;63.39
15998;BME280;8103;51.340;12.326;2023-05-01T01:20:18;100635.00;;;8.33;62.95
15998;BME280;8103;51.340;12.326;2023-05-01T01:23:02;100632.31;;;8.33;62.51
15998;BME280;8103;51.340;12.326;2023-05-01T01:32:33;100633.38;;;8.32;61.61
15998;BME280;8103;51.340;12.326;2023-05-01T01:35:25;100623.47;;;8.33;61.45
15998;BME280;8103;51.340;12.326;2023-05-01T01:38:15;100614.44;;;8.34;61.60
15998;BME280;8103;51.340;12.326;2023-05-01T01:41:12;100624.53;;;8.32;61.82
15998;BME280;8103;51.340;12.326;2023-05-01T01:43:48;100615.69;;;8.31;61.00
15998;BME280;8103;51.340;12.326;2023-05-01T01:46:20;100623.47;;;8.33;61.04
15998;BME280;8103;51.340;12.326;2023-05-01T01:48:50;100615.00;;;8.36;60.71
15998;BME280;8103;51.340;12.326;2023-05-01T01:51:20;100610.72;;;8.35;60.66
15998;BME280;8103;51.340;12.326;2023-05-01T01:53:55;100618.28;;;8.38;60.66
15998;BME280;8103;51.340;12.326;2023-05-01T01:56:26;100604.56;;;8.34;60.75
15998;BME280;8103;51.340;12.326;2023-05-01T01:58:56;100603.75;;;8.34;60.47
15998;BME280;8103;51.340;12.326;2023-05-01T02:01:24;100606.44;;;8.34;60.36
15998;BME280;8103;51.340;12.326;2023-05-01T02:03:53;100600.50;;;8.32;60.60
15998;BME280;8103;51.340;12.326;2023-05-01T02:06:23;100595.75;;;8.34;60.53
15998;BME280;8103;51.340;12.326;2023-05-01T02:08:52;100597.13;;;8.36;59.95
15998;BME280;8103;51.340;12.326;2023-05-01T02:11:24;100597.38;;;8.35;60.40
15998;BME280;8103;51.340;12.326;2023-05-01T02:13:54;100590.41;;;8.34;60.23
15998;BME280;8103;51.340;12.326;2023-05-01T02:16:24;100596.75;;;8.33;60.25
15998;BME280;8103;51.340;12.326;2023-05-01T02:18:55;100587.34;;;8.30;60.44
15998;BME280;8103;51.340;12.326;2023-05-01T02:21:24;100585.50;;;8.31;60.50
15998;BME280;8103;51.340;12.326;2023-05-01T02:23:53;100584.47;;;8.32;60.58
15998;BME280;8103;51.340;12.326;2023-05-01T02:26:25;100582.00;;;8.30;60.83
15998;BME280;8103;51.340;12.326;2023-05-01T02:28:52;100581.44;;;8.28;60.91
15998;BME280;8103;51.340;12.326;2023-05-01T02:31:20;100561.31;;;8.26;61.41
15998;BME280;8103;51.340;12.326;2023-05-01T02:33:48;100571.44;;;8.24;62.03
15998;BME280;8103;51.340;12.326;2023-05-01T02:36:18;100563.25;;;8.19;62.34
15998;BME280;8103;51.340;12.326;2023-05-01T02:38:45;100571.13;;;8.14;62.65
15998;BME280;8103;51.340;12.326;2023-05-01T02:41:14;100562.53;;;8.12;63.45
15998;BME280;8103;51.340;12.326;2023-05-01T02:43:45;100565.50;;;8.04;63.62
15998;BME280;8103;51.340;12.326;2023-05-01T02:46:16;100562.72;;;7.99;63.78
15998;BME280;8103;51.340;12.326;2023-05-01T02:48:45;100559.91;;;7.94;64.18
15998;BME280;8103;51.340;12.326;2023-05-01T02:51:14;100548.63;;;7.92;64.24
15998;BME280;8103;51.340;12.326;2023-05-01T02:53:44;100553.41;;;7.90;64.36
15998;BME280;8103;51.340;12.326;2023-05-01T02:56:12;100544.22;;;7.86;64.80
15998;BME280;8103;51.340;12.326;2023-05-01T02:58:42;100543.63;;;7.84;64.52
15998;BME280;8103;51.340;12.326;2023-05-01T03:01:10;100543.03;;;7.82;64.73
15998;BME280;8103;51.340;12.326;2023-05-01T03:03:37;100535.84;;;7.82;64.55
15998;BME280;8103;51.340;12.326;2023-05-01T03:06:07;100533.78;;;7.84;64.28
15998;BME280;8103;51.340;12.326;2023-05-01T03:08:35;100524.72;;;7.85;64.27
15998;BME280;8103;51.340;12.326;2023-05-01T03:11:08;100525.16;;;7.82;63.83
15998;BME280;8103;51.340;12.326;2023-05-01T03:13:38;100525.16;;;7.82;64.14
15998;BME280;8103;51.340;12.326;2023-05-01T03:16:05;100524.94;;;7.84;63.69
15998;BME280;8103;51.340;12.326;2023-05-01T03:18:32;100522.50;;;7.82;64.05
15998;BME280;8103;51.340;12.326;2023-05-01T03:20:59;100514.09;;;7.79;64.19
15998;BME280;8103;51.340;12.326;2023-05-01T03:23:26;100516.56;;;7.80;63.83
15998;BME280;8103;51.340;12.326;2023-05-01T03:25:55;100515.31;;;7.83;63.87
15998;BME280;8103;51.340;12.326;2023-05-01T03:28:23;100508.31;;;7.82;63.85
15998;BME280;8103;51.340;12.326;2023-05-01T03:30:50;100504.03;;;7.81;64.20
15998;BME280;8103;51.340;12.326;2023-05-01T03:33:19;100507.75;;;7.80;63.63
15998;BME280;8103;51.340;12.326;2023-05-01T03:35:59;100508.31;;;7.82;63.54
15998;BME280;8103;51.340;12.326;2023-05-01T03:38:27;100494.53;;;7.85;64.41
15998;BME280;8103;51.340;12.326;2023-05-01T03:40:56;100490.25;;;7.84;65.18
15998;BME280;8103;51.340;12.326;2023-05-01T03:43:24;100494.75;;;7.83;65.21
15998;BME280;8103;51.340;12.326;2023-05-01T03:45:51;100488.03;;;7.81;65.64
15998;BME280;8103;51.340;12.326;2023-05-01T03:48:19;100492.75;;;7.79;65.10
15998;BME280;8103;51.340;12.326;2023-05-01T03:50:46;100480.91;;;7.75;65.35
15998;BME280;8103;51.340;12.326;2023-05-01T03:53:13;100481.38;;;7.72;65.88
15998;BME280;8103;51.340;12.326;2023-05-01T03:55:41;100486.13;;;7.70;65.92
15998;BME280;8103;51.340;12.326;2023-05-01T03:58:08;100487.59;;;7.66;65.72
15998;BME280;8103;51.340;12.326;2023-05-01T04:00:36;100487.25;;;7.62;65.62
15998;BME280;8103;51.340;12.326;2023-05-01T04:03:04;100489.31;;;7.60;65.98
15998;BME280;8103;51.340;12.326;2023-05-01T04:05:31;100485.16;;;7.64;66.09
15998;BME280;8103;51.340;12.326;2023-05-01T04:08:00;100479.38;;;7.67;66.13
15998;BME280;8103;51.340;12.326;2023-05-01T04:10:27;100484.50;;;7.69;66.35
15998;BME280;8103;51.340;12.326;2023-05-01T04:12:53;100473.81;;;7.69;66.50
15998;BME280;8103;51.340;12.326;2023-05-01T04:15:20;100479.31;;;7.74;66.00
15998;BME280;8103;51.340;12.326;2023-05-01T04:17:48;100484.53;;;7.80;66.19
15998;BME280;8103;51.340;12.326;2023-05-01T04:20:16;100486.97;;;7.82;66.24
15998;BME280;8103;51.340;12.326;2023-05-01T04:22:44;100485.50;;;7.86;66.13
15998;BME280;8103;51.340;12.326;2023-05-01T04:25:12;100483.53;;;7.93;65.62
15998;BME280;8103;51.340;12.326;2023-05-01T04:27:39;100489.81;;;7.98;65.28
15998;BME280;8103;51.340;12.326;2023-05-01T04:30:08;100490.31;;;8.07;65.08
15998;BME280;8103;51.340;12.326;2023-05-01T04:32:34;100486.03;;;8.17;64.79
15998;BME280;8103;51.340;12.326;2023-05-01T04:35:02;100486.53;;;8.26;64.07
15998;BME280;8103;51.340;12.326;2023-05-01T04:37:30;100487.03;;;8.34;64.00
15998;BME280;8103;51.340;12.326;2023-05-01T04:39:57;100481.56;;;8.41;63.71
15998;BME280;8103;51.340;12.326;2023-05-01T04:42:32;100476.00;;;8.54;62.77
15998;BME280;8103;51.340;12.326;2023-05-01T04:44:59;100474.63;;;8.63;62.81
15998;BME280;8103;51.340;12.326;2023-05-01T04:47:29;100467.19;;;8.65;62.47
15998;BME280;8103;51.340;12.326;2023-05-01T04:49:59;100468.13;;;8.71;62.13
15998;BME280;8103;51.340;12.326;2023-05-01T04:52:28;100463.09;;;8.74;62.19
15998;BME280;8103;51.340;12.326;2023-05-01T04:54:56;100466.50;;;8.81;62.13
15998;BME280;8103;51.340;12.326;2023-05-01T04:57:23;100470.31;;;8.85;62.13
15998;BME280;8103;51.340;12.326;2023-05-01T04:59:55;100473.22;;;8.95;61.75
15998;BME280;8103;51.340;12.326;2023-05-01T05:02:23;100477.25;;;9.09;61.16
15998;BME280;8103;51.340;12.326;2023-05-01T05:04:51;100477.81;;;9.23;60.29
15998;BME280;8103;51.340;12.326;2023-05-01T05:07:19;100475.22;;;9.39;58.89
15998;BME280;8103;51.340;12.326;2023-05-01T05:09:47;100473.31;;;9.51;59.85
15998;BME280;8103;51.340;12.326;2023-05-01T05:12:17;100476.84;;;9.68;59.00
15998;BME280;8103;51.340;12.326;2023-05-01T05:14:44;100473.88;;;9.81;58.60
15998;BME280;8103;51.340;12.326;2023-05-01T05:17:11;100473.09;;;9.97;58.92
15998;BME280;8103;51.340;12.326;2023-05-01T05:19:37;100469.41;;;10.15;58.36
15998;BME280;8103;51.340;12.326;2023-05-01T05:22:06;100477.88;;;10.23;56.84
15998;BME280;8103;51.340;12.326;2023-05-01T05:24:33;100467.34;;;10.33;55.83
15998;BME280;8103;51.340;12.326;2023-05-01T05:27:00;100462.84;;;10.39;55.37
15998;BME280;8103;51.340;12.326;2023-05-01T05:29:27;100463.25;;;10.47;54.79
15998;BME280;8103;51.340;12.326;2023-05-01T05:31:53;100460.19;;;10.55;54.42
15998;BME280;8103;51.340;12.326;2023-05-01T05:34:22;100460.41;;;10.54;54.88
15998;BME280;8103;51.340;12.326;2023-05-01T05:36:52;100459.19;;;10.61;54.67
15998;BME280;8103;51.340;12.326;2023-05-01T05:39:21;100465.19;;;10.68;54.97
15998;BME280;8103;51.340;12.326;2023-05-01T05:41:49;100460.13;;;10.72;54.57
15998;BME280;8103;51.340;12.326;2023-05-01T05:44:19;100459.34;;;10.71;54.98
15998;BME280;8103;51.340;12.326;2023-05-01T05:46:46;100452.69;;;10.57;54.67
15998;BME280;8103;51.340;12.326;2023-05-01T05:49:13;100455.31;;;10.52;55.13
15998;BME280;8103;51.340;12.326;2023-05-01T05:51:40;100454.16;;;10.48;55.00
15998;BME280;8103;51.340;12.326;2023-05-01T05:58:20;100454.00;;;10.38;56.06
15998;BME280;8103;51.340;12.326;2023-05-01T06:00:49;100450.91;;;10.46;56.36
15998;BME280;8103;51.340;12.326;2023-05-01T06:03:16;100458.03;;;10.57;56.25
15998;BME280;8103;51.340;12.326;2023-05-01T06:05:44;100452.03;;;10.67;55.64
15998;BME280;8103;51.340;12.326;2023-05-01T06:08:11;100441.44;;;10.77;55.66
15998;BME280;8103;51.340;12.326;2023-05-01T06:14:45;100434.63;;;10.69;55.43
15998;BME280;8103;51.340;12.326;2023-05-01T06:17:12;100437.75;;;10.61;55.55
15998;BME280;8103;51.340;12.326;2023-05-01T06:19:40;100436.06;;;10.55;56.31
15998;BME280;8103;51.340;12.326;2023-05-01T06:22:07;100442.78;;;10.58;56.52
15998;BME280;8103;51.340;12.326;2023-05-01T06:24:34;100442.69;;;10.69;56.17
15998;BME280;8103;51.340;12.326;2023-05-01T06:27:02;100431.69;;;10.88;56.34
15998;BME280;8103;51.340;12.326;2023-05-01T06:29:30;100431.34;;;11.06;55.71
15998;BME280;8103;51.340;12.326;2023-05-01T06:31:58;100434.69;;;11.13;55.66
15998;BME280;8103;51.340;12.326;2023-05-01T06:34:25;100443.94;;;11.22;55.71
15998;BME280;8103;51.340;12.326;2023-05-01T06:36:51;100433.31;;;11.32;55.27
15998;BME280;8103;51.340;12.326;2023-05-01T06:39:21;100431.81;;;11.41;54.26
15998;BME280;8103;51.340;12.326;2023-05-01T06:41:48;100434.63;;;11.56;53.99
15998;BME280;8103;51.340;12.326;2023-05-01T06:44:15;100424.56;;;11.63;54.11
15998;BME280;8103;51.340;12.326;2023-05-01T06:46:42;100429.34;;;11.61;53.63
15998;BME280;8103;51.340;12.326;2023-05-01T06:49:09;100420.59;;;11.70;53.55
15998;BME280;8103;51.340;12.326;2023-05-01T06:51:37;100416.72;;;11.88;53.48
15998;BME280;8103;51.340;12.326;2023-05-01T06:54:04;100419.03;;;12.06;53.08
15998;BME280;8103;51.340;12.326;2023-05-01T06:56:33;100418.09;;;12.22;52.31
15998;BME280;8103;51.340;12.326;2023-05-01T06:59:00;100414.00;;;12.51;51.84
15998;BME280;8103;51.340;12.326;2023-05-01T07:01:28;100420.84;;;12.68;51.03
15998;BME280;8103;51.340;12.326;2023-05-01T07:08:01;100411.25;;;12.87;50.04
15998;BME280;8103;51.340;12.326;2023-05-01T07:14:34;100411.19;;;13.24;49.27
15998;BME280;8103;51.340;12.326;2023-05-01T07:17:02;100409.06;;;13.36;48.81
15998;BME280;8103;51.340;12.326;2023-05-01T07:19:29;100402.91;;;13.36;48.69
15998;BME280;8103;51.340;12.326;2023-05-01T07:21:56;100410.19;;;13.40;48.86
15998;BME280;8103;51.340;12.326;2023-05-01T07:24:23;100409.91;;;13.47;48.36
15998;BME280;8103;51.340;12.326;2023-05-01T07:26:50;100410.22;;;13.60;48.22
15998;BME280;8103;51.340;12.326;2023-05-01T07:29:17;100410.78;;;13.67;47.76
15998;BME280;8103;51.340;12.326;2023-05-01T07:31:45;100392.47;;;13.84;47.50
15998;BME280;8103;51.340;12.326;2023-05-01T07:34:13;100389.50;;;14.01;47.30
15998;BME280;8103;51.340;12.326;2023-05-01T07:36:40;100401.94;;;14.12;47.11
15998;BME280;8103;51.340;12.326;2023-05-01T07:39:07;100387.34;;;14.13;46.88
15998;BME280;8103;51.340;12.326;2023-05-01T07:41:34;100381.72;;;14.29;46.51
15998;BME280;8103;51.340;12.326;2023-05-01T07:44:01;100390.31;;;14.51;46.02
15998;BME280;8103;51.340;12.326;2023-05-01T07:46:28;100388.13;;;14.53;46.39
15998;BME280;8103;51.340;12.326;2023-05-01T07:48:55;100384.25;;;14.94;45.49
15998;BME280;8103;51.340;12.326;2023-05-01T07:51:22;100392.97;;;15.40;44.53
15998;BME280;8103;51.340;12.326;2023-05-01T07:53:49;100378.09;;;15.86;43.70
15998;BME280;8103;51.340;12.326;2023-05-01T07:56:17;100376.84;;;16.36;42.78
15998;BME280;8103;51.340;12.326;2023-05-01T07:58:44;100369.94;;;17.01;40.71
15998;BME280;8103;51.340;12.326;2023-05-01T08:01:11;100377.47;;;17.27;39.40
15998;BME280;8103;51.340;12.326;2023-05-01T08:03:38;100377.94;;;17.29;39.14
15998;BME280;8103;51.340;12.326;2023-05-01T08:06:08;100377.28;;;17.19;39.47
15998;BME280;8103;51.340;12.326;2023-05-01T08:08:35;100372.09;;;17.22;39.59
15998;BME280;8103;51.340;12.326;2023-05-01T08:11:01;100371.28;;;17.64;39.31
15998;BME280;8103;51.340;12.326;2023-05-01T08:13:28;100364.00;;;18.42;38.03
15998;BME280;8103;51.340;12.326;2023-05-01T08:16:00;100353.16;;;19.10;36.60
15998;BME280;8103;51.340;12.326;2023-05-01T08:18:30;100352.75;;;19.87;34.97
15998;BME280;8103;51.340;12.326;2023-05-01T08:20:57;100360.53;;;20.16;33.70
15998;BME280;8103;51.340;12.326;2023-05-01T08:23:29;100349.38;;;20.04;34.17
15998;BME280;8103;51.340;12.326;2023-05-01T08:25:57;100353.88;;;20.08;33.58
15998;BME280;8103;51.340;12.326;2023-05-01T08:28:25;100348.06;;;20.01;33.58
15998;BME280;8103;51.340;12.326;2023-05-01T08:30:53;100357.13;;;20.71;32.47
15998;BME280;8103;51.340;12.326;2023-05-01T08:33:23;100349.41;;;21.04;32.24
15998;BME280;8103;51.340;12.326;2023-05-01T08:35:51;100349.63;;;22.01;30.65
15998;BME280;8103;51.340;12.326;2023-05-01T08:38:19;100358.47;;;23.08;28.80
15998;BME280;8103;51.340;12.326;2023-05-01T08:40:52;100349.66;;;23.31;28.12
15998;BME280;8103;51.340;12.326;2023-05-01T08:43:20;100355.44;;;23.91;27.41
15998;BME280;8103;51.340;12.326;2023-05-01T08:45:47;100354.53;;;24.08;27.20
15998;BME280;8103;51.340;12.326;2023-05-01T08:48:16;100346.69;;;24.30;26.96
15998;BME280;8103;51.340;12.326;2023-05-01T08:50:46;100338.63;;;24.58;26.37
15998;BME280;8103;51.340;12.326;2023-05-01T08:53:17;100349.41;;;25.23;26.25
15998;BME280;8103;51.340;12.326;2023-05-01T08:55:47;100343.88;;;26.14;25.24
15998;BME280;8103;51.340;12.326;2023-05-01T08:58:17;100335.19;;;27.21;23.70
15998;BME280;8103;51.340;12.326;2023-05-01T09:00:46;100327.19;;;27.32;23.50
15998;BME280;8103;51.340;12.326;2023-05-01T09:03:15;100330.94;;;27.24;22.91
15998;BME280;8103;51.340;12.326;2023-05-01T09:05:45;100330.06;;;26.57;23.53
15998;BME280;8103;51.340;12.326;2023-05-01T09:08:12;100320.56;;;25.96;24.03
15998;BME280;8103;51.340;12.326;2023-05-01T09:10:47;100318.19;;;25.67;24.55
15998;BME280;8103;51.340;12.326;2023-05-01T09:13:17;100316.41;;;26.45;23.88
15998;BME280;8103;51.340;12.326;2023-05-01T09:15:44;100311.41;;;27.67;22.66
15998;BME280;8103;51.340;12.326;2023-05-01T09:18:11;100306.03;;;28.57;21.14
15998;BME280;8103;51.340;12.326;2023-05-01T09:20:39;100304.28;;;29.20;20.89
15998;BME280;8103;51.340;12.326;2023-05-01T09:23:07;100305.69;;;29.99;20.42
15998;BME280;8103;51.340;12.326;2023-05-01T09:25:34;100295.25;;;30.62;20.14
15998;BME280;8103;51.340;12.326;2023-05-01T09:28:05;100303.78;;;31.55;18.93
15998;BME280;8103;51.340;12.326;2023-05-01T09:30:38;100304.03;;;32.29;18.19
15998;BME280;8103;51.340;12.326;2023-05-01T09:33:10;100294.38;;;31.81;18.17
15998;BME280;8103;51.340;12.326;2023-05-01T09:35:54;100291.72;;;31.27;18.79
15998;BME280;8103;51.340;12.326;2023-05-01T09:38:25;100285.75;;;32.21;17.67
15998;BME280;8103;51.340;12.326;2023-05-01T09:41:03;100283.41;;;33.00;17.29
15998;BME280;8103;51.340;12.326;2023-05-01T09:43:30;100277.00;;;33.21;17.18
15998;BME280;8103;51.340;12.326;2023-05-01T09:46:05;100276.09;;;33.55;16.85
15998;BME280;8103;51.340;12.326;2023-05-01T09:48:33;100266.91;;;33.65;16.74
15998;BME280;8103;51.340;12.326;2023-05-01T09:53:55;100275.16;;;33.79;16.83
15998;BME280;8103;51.340;12.326;2023-05-01T10:00:23;100274.03;;;36.40;15.30
15998;BME280;8103;51.340;12.326;2023-05-01T10:02:53;100270.03;;;36.64;14.24
15998;BME280;8103;51.340;12.326;2023-05-01T10:05:22;100273.56;;;36.45;14.53
15998;BME280;8103;51.340;12.326;2023-05-01T10:08:01;100255.09;;;36.24;14.59
15998;BME280;8103;51.340;12.326;2023-05-01T10:10:30;100257.09;;;35.41;14.69
15998;BME280;8103;51.340;12.326;2023-05-01T10:13:13;100252.91;;;34.82;15.56
15998;BME280;8103;51.340;12.326;2023-05-01T10:15:40;100246.84;;;34.49;15.31
15998;BME280;8103;51.340;12.326;2023-05-01T10:18:09;100247.38;;;35.19;15.44
15998;BME280;8103;51.340;12.326;2023-05-01T10:20:37;100238.25;;;36.05;14.36
15998;BME280;8103;51.340;12.326;2023-05-01T10:23:05;100245.00;;;36.57;13.91
15998;BME280;8103;51.340;12.326;2023-05-01T10:29:40;100239.13;;;38.56;12.85
15998;BME280;8103;51.340;12.326;2023-05-01T10:32:08;100237.19;;;39.26;12.39
15998;BME280;8103;51.340;12.326;2023-05-01T10:34:56;100236.78;;;39.94;11.86
15998;BME280;8103;51.340;12.326;2023-05-01T10:37:59;100231.72;;;40.01;11.59
15998;BME280;8103;51.340;12.326;2023-05-01T10:50:12;100207.31;;;43.17;9.77
15998;BME280;8103;51.340;12.326;2023-05-01T10:53:15;100188.66;;;43.01;9.71
15998;BME280;8103;51.340;12.326;2023-05-01T10:55:44;100187.59;;;42.72;9.99
15998;BME280;8103;51.340;12.326;2023-05-01T11:01:35;100184.72;;;43.17;9.53
15998;BME280;8103;51.340;12.326;2023-05-01T11:04:06;100177.78;;;43.78;9.14
15998;BME280;8103;51.340;12.326;2023-05-01T11:14:06;100168.13;;;46.35;8.33
15998;BME280;8103;51.340;12.326;2023-05-01T11:21:38;100160.06;;;47.50;nan
15998;BME280;8103;51.340;12.326;2023-05-01T11:24:07;100154.44;;;48.51;nan
15998;BME280;8103;51.340;12.326;2023-05-01T11:26:39;100151.50;;;49.32;nan
15998;BME280;8103;51.340;12.326;2023-05-01T11:29:10;100150.69;;;49.48;nan
15998;BME280;8103;51.340;12.326;2023-05-01T11:31:38;100131.78;;;49.12;nan
15998;BME280;8103;51.340;12.326;2023-05-01T11:38:17;100130.22;;;49.44;nan
15998;BME280;8103;51.340;12.326;2023-05-01T11:45:09;100118.34;;;51.89;nan
15998;BME280;8103;51.340;12.326;2023-05-01T11:47:39;100116.25;;;52.50;nan
15998;BME280;8103;51.340;12.326;2023-05-01T11:50:10;100113.56;;;51.97;nan
15998;BME280;8103;51.340;12.326;2023-05-01T11:52:53;100106.47;;;50.96;nan
15998;BME280;8103;51.340;12.326;2023-05-01T11:55:30;100108.78;;;50.57;nan
15998;BME280;8103;51.340;12.326;2023-05-01T11:57:57;100109.19;;;49.69;nan
15998;BME280;8103;51.340;12.326;2023-05-01T12:00:33;100099.34;;;48.70;nan
15998;BME280;8103;51.340;12.326;2023-05-01T12:07:21;100085.53;;;51.42;nan
15998;BME280;8103;51.340;12.326;2023-05-01T12:09:50;100087.66;;;52.08;nan
15998;BME280;8103;51.340;12.326;2023-05-01T12:12:17;100082.25;;;52.92;nan
15998;BME280;8103;51.340;12.326;2023-05-01T12:14:44;100079.19;;;52.52;nan
15998;BME280;8103;51.340;12.326;2023-05-01T12:17:12;100072.63;;;52.20;nan
15998;BME280;8103;51.340;12.326;2023-05-01T12:19:46;100068.41;;;51.60;nan
15998;BME280;8103;51.340;12.326;2023-05-01T12:22:21;100063.66;;;51.87;nan
15998;BME280;8103;51.340;12.326;2023-05-01T12:24:54;100067.38;;;51.82;nan
15998;BME280;8103;51.340;12.326;2023-05-01T12:27:21;100060.50;;;51.48;nan
15998;BME280;8103;51.340;12.326;2023-05-01T12:34:07;100053.47;;;50.14;nan
15998;BME280;8103;51.340;12.326;2023-05-01T12:40:34;100042.28;;;48.48;nan
15998;BME280;8103;51.340;12.326;2023-05-01T12:43:01;100044.59;;;48.44;nan
15998;BME280;8103;51.340;12.326;2023-05-01T12:45:38;100035.16;;;47.15;nan
15998;BME280;8103;51.340;12.326;2023-05-01T12:48:12;100044.56;;;44.37;nan
15998;BME280;8103;51.340;12.326;2023-05-01T12:50:41;100032.75;;;43.53;nan
15998;BME280;8103;51.340;12.326;2023-05-01T12:53:08;100033.28;;;42.33;nan
15998;BME280;8103;51.340;12.326;2023-05-01T12:55:44;100018.59;;;40.31;nan
15998;BME280;8103;51.340;12.326;2023-05-01T12:58:11;100024.34;;;39.59;nan
15998;BME280;8103;51.340;12.326;2023-05-01T13:00:52;100017.84;;;39.12;nan
15998;BME280;8103;51.340;12.326;2023-05-01T13:03:28;100014.22;;;38.74;nan
15998;BME280;8103;51.340;12.326;2023-05-01T13:06:01;100006.47;;;38.08;nan
15998;BME280;8103;51.340;12.326;2023-05-01T13:08:38;100009.22;;;36.99;nan
15998;BME280;8103;51.340;12.326;2023-05-01T13:11:20;100002.66;;;36.70;nan
15998;BME280;8103;51.340;12.326;2023-05-01T13:13:49;100008.69;;;36.10;nan
15998;BME280;8103;51.340;12.326;2023-05-01T13:16:19;100013.13;;;34.82;nan
15998;BME280;8103;51.340;12.326;2023-05-01T13:18:51;100005.41;;;33.55;nan
15998;BME280;8103;51.340;12.326;2023-05-01T13:21:20;100004.72;;;32.75;nan
15998;BME280;8103;51.340;12.326;2023-05-01T13:23:57;100003.31;;;32.25;nan
15998;BME280;8103;51.340;12.326;2023-05-01T13:27:10;100004.22;;;31.52;nan
15998;BME280;8103;51.340;12.326;2023-05-01T13:29:56;100004.19;;;30.96;nan
15998;BME280;8103;51.340;12.326;2023-05-01T13:32:25;100006.66;;;30.25;nan
15998;BME280;8103;51.340;12.326;2023-05-01T13:34:52;100000.41;;;29.74;nan
15998;BME280;8103;51.340;12.326;2023-05-01T13:37:19;100005.66;;;29.43;nan
15998;BME280;8103;51.340;12.326;2023-05-01T13:39:47;99998.75;;;29.19;nan
15998;BME280;8103;51.340;12.326;2023-05-01T13:46:25;100002.16;;;28.39;nan
15998;BME280;8103;51.340;12.326;2023-05-01T13:48:53;99986.59;;;27.95;nan
15998;BME280;8103;51.340;12.326;2023-05-01T13:51:24;99996.44;;;27.70;nan
15998;BME280;8103;51.340;12.326;2023-05-01T13:53:54;99998.38;;;27.92;nan
15998;BME280;8103;51.340;12.326;2023-05-01T13:56:22;99992.59;;;28.00;nan
15998;BME280;8103;51.340;12.326;2023-05-01T13:58:50;99988.66;;;28.31;nan
15998;BME280;8103;51.340;12.326;2023-05-01T14:01:20;99981.69;;;28.73;nan
15998;BME280;8103;51.340;12.326;2023-05-01T14:03:58;99975.66;;;29.41;nan
15998;BME280;8103;51.340;12.326;2023-05-01T14:06:26;99984.06;;;29.59;nan
15998;BME280;8103;51.340;12.326;2023-05-01T14:08:57;99975.50;;;29.27;nan
15998;BME280;8103;51.340;12.326;2023-05-01T14:11:25;99980.31;;;28.94;nan
15998;BME280;8103;51.340;12.326;2023-05-01T14:13:57;99976.88;;;29.04;nan
15998;BME280;8103;51.340;12.326;2023-05-01T14:16:29;99984.22;;;30.55;nan
15998;BME280;8103;51.340;12.326;2023-05-01T14:18:57;99979.66;;;31.82;nan
15998;BME280;8103;51.340;12.326;2023-05-01T14:21:27;99975.41;;;32.67;nan
15998;BME280;8103;51.340;12.326;2023-05-01T14:23:55;99968.44;;;33.00;nan
15998;BME280;8103;51.340;12.326;2023-05-01T14:26:22;99974.59;;;32.70;nan
15998;BME280;8103;51.340;12.326;2023-05-01T14:28:50;99971.34;;;31.40;nan
15998;BME280;8103;51.340;12.326;2023-05-01T14:31:29;99970.53;;;29.97;nan
15998;BME280;8103;51.340;12.326;2023-05-01T14:34:04;99968.00;;;28.84;nan
15998;BME280;8103;51.340;12.326;2023-05-01T14:36:32;99965.66;;;28.20;nan
15998;BME280;8103;51.340;12.326;2023-05-01T14:39:02;99968.50;;;27.97;nan
15998;BME280;8103;51.340;12.326;2023-05-01T14:41:31;99967.69;;;27.45;nan
15998;BME280;8103;51.340;12.326;2023-05-01T14:44:04;99970.97;;;27.09;nan